Weather at Campo di volo BATFLY

Public forecast

Using degrees Celsius for public forecast. Weather courtesy of forecast.io.

Closest aviation weather report (METAR) to Campo di volo BATFLY

Closest report is Amendola Air Base, 25.3 nm (46.8 km) WNW.

2023/03/21 19:55 (retrieved 37 minutes ago)

LIBA 211955Z 28010KT CAVOK 10/09 Q1016 RMK SKC VIS MIN 9999 WIND THR11 28008KT WIND THR29 /////KT BLU

Closest aviation forecast (TAF) to Campo di volo BATFLY

Closest forecast is Bari Karol Wojtyła Airport, 27.6 nm (51.1 km) ESE.

2023/03/21 18:21 (retrieved 2 hours ago)

TAF LIBD 211700Z 2118/2218 34012KT 9999 SCT005 BKN015 BECMG 2118/2120 26007KT BECMG 2209/2211 35010KT